Terminal Aerodrome Forecast
Issued by NWS

Home | Current Version | Previous Version | Text Only | Print | Product List | Glossary On
Versions: 1 2 3 4 5 6 7 8 9 10 11 12 13 14 15 16 17 18
000
FTUS45 KABQ 291100
TAFGUP
TAF
KGUP 291126Z 2912/3012 26006KT P6SM BKN100
     FM291900 27012KT P6SM VCTS SCT060CB BKN080
     FM292100 29010G18KT P6SM SCT080
     FM300100 VRB05KT P6SM SCT130=

USA.gov is the U.S. government's official web portal to all federal, state and local government web resources and services.